sensor_id;sensor_type;location;lat;lon;timestamp;temperature;humidity
7738;DHT22;29398;45.328;5.558;2023-03-14T00:00:07;12.10;99.90
7738;DHT22;29398;45.328;5.558;2023-03-14T00:01:12;12.10;99.90
7738;DHT22;29398;45.328;5.558;2023-03-14T00:02:14;12.10;99.90
7738;DHT22;29398;45.328;5.558;2023-03-14T00:03:15;12.20;99.90
7738;DHT22;29398;45.328;5.558;2023-03-14T00:04:17;12.20;99.90
7738;DHT22;29398;45.328;5.558;2023-03-14T00:05:19;12.20;99.90
7738;DHT22;29398;45.328;5.558;2023-03-14T00:06:21;12.20;99.90
7738;DHT22;29398;45.328;5.558;2023-03-14T00:07:23;12.20;99.90
7738;DHT22;29398;45.328;5.558;2023-03-14T00:08:26;12.30;99.90
7738;DHT22;29398;45.328;5.558;2023-03-14T00:09:27;12.20;99.90
7738;DHT22;29398;45.328;5.558;2023-03-14T00:10:30;12.20;99.90
7738;DHT22;29398;45.328;5.558;2023-03-14T00:11:31;12.10;99.90
7738;DHT22;29398;45.328;5.558;2023-03-14T00:12:33;12.20;99.90
7738;DHT22;29398;45.328;5.558;2023-03-14T00:13:34;12.10;99.90
7738;DHT22;29398;45.328;5.558;2023-03-14T00:14:38;12.00;99.90
7738;DHT22;29398;45.328;5.558;2023-03-14T00:15:39;12.10;99.90
7738;DHT22;29398;45.328;5.558;2023-03-14T00:16:41;12.00;99.90
7738;DHT22;29398;45.328;5.558;2023-03-14T00:17:43;12.10;99.90
7738;DHT22;29398;45.328;5.558;2023-03-14T00:18:46;12.10;99.90
7738;DHT22;29398;45.328;5.558;2023-03-14T00:19:47;12.10;99.90
7738;DHT22;29398;45.328;5.558;2023-03-14T00:20:52;12.10;99.90
7738;DHT22;29398;45.328;5.558;2023-03-14T00:21:54;12.10;99.90
7738;DHT22;29398;45.328;5.558;2023-03-14T00:22:56;12.10;99.90
7738;DHT22;29398;45.328;5.558;2023-03-14T00:23:57;12.10;99.90
7738;DHT22;29398;45.328;5.558;2023-03-14T00:24:59;12.20;99.90
7738;DHT22;29398;45.328;5.558;2023-03-14T00:26:01;12.20;99.90
7738;DHT22;29398;45.328;5.558;2023-03-14T00:27:03;12.20;99.90
7738;DHT22;29398;45.328;5.558;2023-03-14T00:28:04;12.20;99.90
7738;DHT22;29398;45.328;5.558;2023-03-14T00:29:06;12.20;99.90
7738;DHT22;29398;45.328;5.558;2023-03-14T00:30:10;12.20;99.90
7738;DHT22;29398;45.328;5.558;2023-03-14T00:31:14;12.10;99.90
7738;DHT22;29398;45.328;5.558;2023-03-14T00:32:16;12.20;99.90
7738;DHT22;29398;45.328;5.558;2023-03-14T00:33:18;12.10;99.90
7738;DHT22;29398;45.328;5.558;2023-03-14T00:34:19;12.10;99.90
7738;DHT22;29398;45.328;5.558;2023-03-14T00:35:21;12.20;99.90
7738;DHT22;29398;45.328;5.558;2023-03-14T00:36:23;12.20;99.90
7738;DHT22;29398;45.328;5.558;2023-03-14T00:37:25;12.20;99.90
7738;DHT22;29398;45.328;5.558;2023-03-14T00:38:27;12.20;99.90
7738;DHT22;29398;45.328;5.558;2023-03-14T00:39:29;12.20;99.90
7738;DHT22;29398;45.328;5.558;2023-03-14T00:40:31;12.20;99.90
7738;DHT22;29398;45.328;5.558;2023-03-14T00:41:33;12.20;99.90
7738;DHT22;29398;45.328;5.558;2023-03-14T00:42:34;12.10;99.90
7738;DHT22;29398;45.328;5.558;2023-03-14T00:43:37;12.10;99.90
7738;DHT22;29398;45.328;5.558;2023-03-14T00:44:39;12.10;99.90
7738;DHT22;29398;45.328;5.558;2023-03-14T00:45:43;12.10;99.90
7738;DHT22;29398;45.328;5.558;2023-03-14T00:46:44;12.00;99.90
7738;DHT22;29398;45.328;5.558;2023-03-14T00:47:46;12.00;99.90
7738;DHT22;29398;45.328;5.558;2023-03-14T00:48:48;12.10;99.90
7738;DHT22;29398;45.328;5.558;2023-03-14T00:49:51;12.00;99.90
7738;DHT22;29398;45.328;5.558;2023-03-14T00:50:53;12.10;99.90
7738;DHT22;29398;45.328;5.558;2023-03-14T00:51:55;12.10;99.90
7738;DHT22;29398;45.328;5.558;2023-03-14T00:52:57;12.20;99.90
7738;DHT22;29398;45.328;5.558;2023-03-14T00:53:59;12.00;99.90
7738;DHT22;29398;45.328;5.558;2023-03-14T00:55:00;12.00;99.90
7738;DHT22;29398;45.328;5.558;2023-03-14T00:56:04;12.00;99.90
7738;DHT22;29398;45.328;5.558;2023-03-14T00:57:06;12.00;99.90
7738;DHT22;29398;45.328;5.558;2023-03-14T00:58:09;12.00;99.90
7738;DHT22;29398;45.328;5.558;2023-03-14T00:59:10;12.00;99.90
7738;DHT22;29398;45.328;5.558;2023-03-14T01:00:13;12.00;99.90
7738;DHT22;29398;45.328;5.558;2023-03-14T01:01:17;12.00;99.90
7738;DHT22;29398;45.328;5.558;2023-03-14T01:02:20;12.10;99.90
7738;DHT22;29398;45.328;5.558;2023-03-14T01:03:21;12.10;99.90
7738;DHT22;29398;45.328;5.558;2023-03-14T01:04:24;12.10;99.90
7738;DHT22;29398;45.328;5.558;2023-03-14T01:05:25;12.10;99.90
7738;DHT22;29398;45.328;5.558;2023-03-14T01:06:28;12.10;99.90
7738;DHT22;29398;45.328;5.558;2023-03-14T01:07:30;12.00;99.90
7738;DHT22;29398;45.328;5.558;2023-03-14T01:08:32;11.90;99.90
7738;DHT22;29398;45.328;5.558;2023-03-14T01:09:35;11.90;99.90
7738;DHT22;29398;45.328;5.558;2023-03-14T01:10:38;11.90;99.90
7738;DHT22;29398;45.328;5.558;2023-03-14T01:11:40;11.90;99.90
7738;DHT22;29398;45.328;5.558;2023-03-14T01:12:42;11.90;99.90
7738;DHT22;29398;45.328;5.558;2023-03-14T01:13:44;11.90;99.90
7738;DHT22;29398;45.328;5.558;2023-03-14T01:14:46;11.80;99.90
7738;DHT22;29398;45.328;5.558;2023-03-14T01:15:47;11.80;99.90
7738;DHT22;29398;45.328;5.558;2023-03-14T01:16:50;11.80;99.90
7738;DHT22;29398;45.328;5.558;2023-03-14T01:17:52;11.80;99.90
7738;DHT22;29398;45.328;5.558;2023-03-14T01:18:54;11.90;99.90
7738;DHT22;29398;45.328;5.558;2023-03-14T01:19:55;12.00;99.90
7738;DHT22;29398;45.328;5.558;2023-03-14T01:20:58;12.00;99.90
7738;DHT22;29398;45.328;5.558;2023-03-14T01:21:59;12.00;99.90
7738;DHT22;29398;45.328;5.558;2023-03-14T01:23:01;12.00;99.90
7738;DHT22;29398;45.328;5.558;2023-03-14T01:24:04;11.90;99.90
7738;DHT22;29398;45.328;5.558;2023-03-14T01:25:08;11.90;99.90
7738;DHT22;29398;45.328;5.558;2023-03-14T01:26:10;11.90;99.90
7738;DHT22;29398;45.328;5.558;2023-03-14T01:27:13;11.90;99.90
7738;DHT22;29398;45.328;5.558;2023-03-14T01:28:14;12.00;99.90
7738;DHT22;29398;45.328;5.558;2023-03-14T01:29:16;11.90;99.90
7738;DHT22;29398;45.328;5.558;2023-03-14T01:30:18;11.90;99.90
7738;DHT22;29398;45.328;5.558;2023-03-14T01:31:20;12.00;99.90
7738;DHT22;29398;45.328;5.558;2023-03-14T01:32:22;12.00;99.90
7738;DHT22;29398;45.328;5.558;2023-03-14T01:33:27;12.00;99.90
7738;DHT22;29398;45.328;5.558;2023-03-14T01:34:28;12.00;99.90
7738;DHT22;29398;45.328;5.558;2023-03-14T01:35:30;12.10;99.90
7738;DHT22;29398;45.328;5.558;2023-03-14T01:36:31;12.10;99.90
7738;DHT22;29398;45.328;5.558;2023-03-14T01:37:36;12.10;99.90
7738;DHT22;29398;45.328;5.558;2023-03-14T01:38:39;12.10;99.90
7738;DHT22;29398;45.328;5.558;2023-03-14T01:39:43;12.00;99.90
7738;DHT22;29398;45.328;5.558;2023-03-14T01:40:44;12.00;99.90
7738;DHT22;29398;45.328;5.558;2023-03-14T01:41:47;12.00;99.90
7738;DHT22;29398;45.328;5.558;2023-03-14T01:42:54;12.00;99.90
7738;DHT22;29398;45.328;5.558;2023-03-14T01:43:57;12.00;99.90
7738;DHT22;29398;45.328;5.558;2023-03-14T01:44:59;12.00;99.90
7738;DHT22;29398;45.328;5.558;2023-03-14T01:46:32;12.00;99.90
7738;DHT22;29398;45.328;5.558;2023-03-14T01:47:36;12.10;99.90
7738;DHT22;29398;45.328;5.558;2023-03-14T01:48:42;12.10;99.90
7738;DHT22;29398;45.328;5.558;2023-03-14T01:49:46;12.00;99.90
7738;DHT22;29398;45.328;5.558;2023-03-14T01:50:48;12.10;99.90
7738;DHT22;29398;45.328;5.558;2023-03-14T01:51:54;12.00;99.90
7738;DHT22;29398;45.328;5.558;2023-03-14T01:52:58;12.10;99.90
7738;DHT22;29398;45.328;5.558;2023-03-14T01:54:05;12.10;99.90
7738;DHT22;29398;45.328;5.558;2023-03-14T01:55:12;12.00;99.90
7738;DHT22;29398;45.328;5.558;2023-03-14T01:56:15;12.00;99.90
7738;DHT22;29398;45.328;5.558;2023-03-14T01:57:20;12.00;99.90
7738;DHT22;29398;45.328;5.558;2023-03-14T01:58:24;12.00;99.90
7738;DHT22;29398;45.328;5.558;2023-03-14T01:59:29;12.00;99.90
7738;DHT22;29398;45.328;5.558;2023-03-14T02:00:32;12.00;99.90
7738;DHT22;29398;45.328;5.558;2023-03-14T02:01:33;12.00;99.90
7738;DHT22;29398;45.328;5.558;2023-03-14T02:02:39;12.00;99.90
7738;DHT22;29398;45.328;5.558;2023-03-14T02:03:45;12.00;99.90
7738;DHT22;29398;45.328;5.558;2023-03-14T02:04:48;11.90;99.90
7738;DHT22;29398;45.328;5.558;2023-03-14T02:05:54;11.90;99.90
7738;DHT22;29398;45.328;5.558;2023-03-14T02:07:00;12.00;99.90
7738;DHT22;29398;45.328;5.558;2023-03-14T02:08:11;12.00;99.90
7738;DHT22;29398;45.328;5.558;2023-03-14T02:09:24;12.00;99.90
7738;DHT22;29398;45.328;5.558;2023-03-14T02:10:28;12.00;99.90
7738;DHT22;29398;45.328;5.558;2023-03-14T02:11:32;12.00;99.90
7738;DHT22;29398;45.328;5.558;2023-03-14T02:12:56;12.10;99.90
7738;DHT22;29398;45.328;5.558;2023-03-14T02:14:29;12.00;99.90
7738;DHT22;29398;45.328;5.558;2023-03-14T02:15:46;11.90;99.90
7738;DHT22;29398;45.328;5.558;2023-03-14T02:17:08;11.90;99.90
7738;DHT22;29398;45.328;5.558;2023-03-14T02:18:30;11.90;99.90
7738;DHT22;29398;45.328;5.558;2023-03-14T02:20:08;12.00;99.90
7738;DHT22;29398;45.328;5.558;2023-03-14T02:21:20;12.00;99.90
7738;DHT22;29398;45.328;5.558;2023-03-14T02:22:23;12.00;99.90
7738;DHT22;29398;45.328;5.558;2023-03-14T02:23:40;12.00;99.90
7738;DHT22;29398;45.328;5.558;2023-03-14T02:24:49;12.00;99.90
7738;DHT22;29398;45.328;5.558;2023-03-14T02:25:57;12.00;99.90
7738;DHT22;29398;45.328;5.558;2023-03-14T02:27:09;12.10;99.90
7738;DHT22;29398;45.328;5.558;2023-03-14T02:28:15;12.00;99.90
7738;DHT22;29398;45.328;5.558;2023-03-14T02:29:18;12.00;99.90
7738;DHT22;29398;45.328;5.558;2023-03-14T02:30:21;12.00;99.90
7738;DHT22;29398;45.328;5.558;2023-03-14T02:31:24;12.00;99.90
7738;DHT22;29398;45.328;5.558;2023-03-14T02:32:26;12.00;99.90
7738;DHT22;29398;45.328;5.558;2023-03-14T02:33:29;11.90;99.90
7738;DHT22;29398;45.328;5.558;2023-03-14T02:34:30;11.80;99.90
7738;DHT22;29398;45.328;5.558;2023-03-14T02:35:37;11.80;99.90
7738;DHT22;29398;45.328;5.558;2023-03-14T02:36:40;11.70;99.90
7738;DHT22;29398;45.328;5.558;2023-03-14T02:37:46;11.70;99.90
7738;DHT22;29398;45.328;5.558;2023-03-14T02:38:53;11.80;99.90
7738;DHT22;29398;45.328;5.558;2023-03-14T02:39:59;11.90;99.90
7738;DHT22;29398;45.328;5.558;2023-03-14T02:41:02;11.90;99.90
7738;DHT22;29398;45.328;5.558;2023-03-14T02:42:08;12.00;99.90
7738;DHT22;29398;45.328;5.558;2023-03-14T02:43:10;12.00;99.90
7738;DHT22;29398;45.328;5.558;2023-03-14T02:44:15;12.00;99.90
7738;DHT22;29398;45.328;5.558;2023-03-14T02:45:33;12.10;99.90
7738;DHT22;29398;45.328;5.558;2023-03-14T02:46:35;12.10;99.90
7738;DHT22;29398;45.328;5.558;2023-03-14T02:47:42;12.10;99.90
7738;DHT22;29398;45.328;5.558;2023-03-14T02:48:46;12.10;99.90
7738;DHT22;29398;45.328;5.558;2023-03-14T02:49:53;12.20;99.90
7738;DHT22;29398;45.328;5.558;2023-03-14T02:50:58;12.20;99.90
7738;DHT22;29398;45.328;5.558;2023-03-14T02:52:01;12.20;99.90
7738;DHT22;29398;45.328;5.558;2023-03-14T02:53:03;12.20;99.90
7738;DHT22;29398;45.328;5.558;2023-03-14T02:54:05;12.20;99.90
7738;DHT22;29398;45.328;5.558;2023-03-14T02:55:07;12.20;99.90
7738;DHT22;29398;45.328;5.558;2023-03-14T02:56:12;12.20;99.90
7738;DHT22;29398;45.328;5.558;2023-03-14T02:57:15;12.20;99.90
7738;DHT22;29398;45.328;5.558;2023-03-14T02:58:17;12.30;99.90
7738;DHT22;29398;45.328;5.558;2023-03-14T02:59:19;12.20;99.90
7738;DHT22;29398;45.328;5.558;2023-03-14T03:00:29;12.20;99.90
7738;DHT22;29398;45.328;5.558;2023-03-14T03:01:31;12.20;99.90
7738;DHT22;29398;45.328;5.558;2023-03-14T03:02:34;12.20;99.90
7738;DHT22;29398;45.328;5.558;2023-03-14T03:03:35;12.10;99.90
7738;DHT22;29398;45.328;5.558;2023-03-14T03:04:37;12.20;99.90
7738;DHT22;29398;45.328;5.558;2023-03-14T03:05:38;12.20;99.90
7738;DHT22;29398;45.328;5.558;2023-03-14T03:06:41;12.20;99.90
7738;DHT22;29398;45.328;5.558;2023-03-14T03:07:43;12.20;99.90
7738;DHT22;29398;45.328;5.558;2023-03-14T03:08:45;12.30;99.90
7738;DHT22;29398;45.328;5.558;2023-03-14T03:09:46;12.30;99.90
7738;DHT22;29398;45.328;5.558;2023-03-14T03:10:49;12.30;99.90
7738;DHT22;29398;45.328;5.558;2023-03-14T03:11:51;12.30;99.90
7738;DHT22;29398;45.328;5.558;2023-03-14T03:12:58;12.30;99.90
7738;DHT22;29398;45.328;5.558;2023-03-14T03:14:01;12.30;99.90
7738;DHT22;29398;45.328;5.558;2023-03-14T03:15:04;12.30;99.90
7738;DHT22;29398;45.328;5.558;2023-03-14T03:16:09;12.30;99.90
7738;DHT22;29398;45.328;5.558;2023-03-14T03:17:14;12.30;99.90
7738;DHT22;29398;45.328;5.558;2023-03-14T03:18:15;12.20;99.90
7738;DHT22;29398;45.328;5.558;2023-03-14T03:19:17;12.20;99.90
7738;DHT22;29398;45.328;5.558;2023-03-14T03:20:18;12.20;99.90
7738;DHT22;29398;45.328;5.558;2023-03-14T03:21:20;12.20;99.90
7738;DHT22;29398;45.328;5.558;2023-03-14T03:22:24;12.10;99.90
7738;DHT22;29398;45.328;5.558;2023-03-14T03:23:26;12.20;99.90
7738;DHT22;29398;45.328;5.558;2023-03-14T03:24:27;12.10;99.90
7738;DHT22;29398;45.328;5.558;2023-03-14T03:25:30;12.10;99.90
7738;DHT22;29398;45.328;5.558;2023-03-14T03:26:32;12.10;99.90
7738;DHT22;29398;45.328;5.558;2023-03-14T03:27:37;12.10;99.90
7738;DHT22;29398;45.328;5.558;2023-03-14T03:28:39;12.10;99.90
7738;DHT22;29398;45.328;5.558;2023-03-14T03:29:41;12.10;99.90
7738;DHT22;29398;45.328;5.558;2023-03-14T03:30:43;12.10;99.90
7738;DHT22;29398;45.328;5.558;2023-03-14T03:31:46;12.10;99.90
7738;DHT22;29398;45.328;5.558;2023-03-14T03:32:48;12.10;99.90
7738;DHT22;29398;45.328;5.558;2023-03-14T03:33:50;12.10;99.90
7738;DHT22;29398;45.328;5.558;2023-03-14T03:34:51;12.10;99.90
7738;DHT22;29398;45.328;5.558;2023-03-14T03:35:53;12.20;99.90
7738;DHT22;29398;45.328;5.558;2023-03-14T03:37:02;12.20;99.90
7738;DHT22;29398;45.328;5.558;2023-03-14T03:38:08;12.20;99.90
7738;DHT22;29398;45.328;5.558;2023-03-14T03:39:09;12.20;99.90
7738;DHT22;29398;45.328;5.558;2023-03-14T03:40:11;12.10;99.90
7738;DHT22;29398;45.328;5.558;2023-03-14T03:42:15;12.10;99.90
7738;DHT22;29398;45.328;5.558;2023-03-14T03:43:16;12.10;99.90
7738;DHT22;29398;45.328;5.558;2023-03-14T03:44:22;12.10;99.90
7738;DHT22;29398;45.328;5.558;2023-03-14T03:45:23;12.10;99.90
7738;DHT22;29398;45.328;5.558;2023-03-14T03:46:29;12.10;99.90
7738;DHT22;29398;45.328;5.558;2023-03-14T03:47:31;12.10;99.90
7738;DHT22;29398;45.328;5.558;2023-03-14T03:48:34;12.00;99.90
7738;DHT22;29398;45.328;5.558;2023-03-14T03:49:38;12.10;99.90
7738;DHT22;29398;45.328;5.558;2023-03-14T03:50:44;12.10;99.90
7738;DHT22;29398;45.328;5.558;2023-03-14T03:51:47;12.10;99.90
7738;DHT22;29398;45.328;5.558;2023-03-14T03:52:48;12.10;99.90
7738;DHT22;29398;45.328;5.558;2023-03-14T03:53:51;12.10;99.90
7738;DHT22;29398;45.328;5.558;2023-03-14T03:54:58;12.10;99.90
7738;DHT22;29398;45.328;5.558;2023-03-14T03:56:03;12.10;99.90
7738;DHT22;29398;45.328;5.558;2023-03-14T03:57:04;12.10;99.90
7738;DHT22;29398;45.328;5.558;2023-03-14T03:58:06;12.10;99.90
7738;DHT22;29398;45.328;5.558;2023-03-14T03:59:08;12.00;99.90
7738;DHT22;29398;45.328;5.558;2023-03-14T04:00:12;12.00;99.90
7738;DHT22;29398;45.328;5.558;2023-03-14T04:01:16;11.90;99.90
7738;DHT22;29398;45.328;5.558;2023-03-14T04:02:22;11.80;99.90
7738;DHT22;29398;45.328;5.558;2023-03-14T04:03:24;11.70;99.90
7738;DHT22;29398;45.328;5.558;2023-03-14T04:04:30;11.70;99.90
7738;DHT22;29398;45.328;5.558;2023-03-14T04:05:31;11.70;99.90
7738;DHT22;29398;45.328;5.558;2023-03-14T04:06:39;11.60;99.90
7738;DHT22;29398;45.328;5.558;2023-03-14T04:07:41;11.60;99.90
7738;DHT22;29398;45.328;5.558;2023-03-14T04:08:43;11.70;99.90
7738;DHT22;29398;45.328;5.558;2023-03-14T04:09:51;11.70;99.90
7738;DHT22;29398;45.328;5.558;2023-03-14T04:11:00;11.70;99.90
7738;DHT22;29398;45.328;5.558;2023-03-14T04:12:22;11.70;99.90
7738;DHT22;29398;45.328;5.558;2023-03-14T04:13:46;11.80;99.90
7738;DHT22;29398;45.328;5.558;2023-03-14T04:14:48;11.80;99.90
7738;DHT22;29398;45.328;5.558;2023-03-14T04:15:57;11.80;99.90
7738;DHT22;29398;45.328;5.558;2023-03-14T04:17:02;11.80;99.90
7738;DHT22;29398;45.328;5.558;2023-03-14T04:18:04;11.90;99.90
7738;DHT22;29398;45.328;5.558;2023-03-14T04:19:07;11.90;99.90
7738;DHT22;29398;45.328;5.558;2023-03-14T04:20:09;11.90;99.90
7738;DHT22;29398;45.328;5.558;2023-03-14T04:21:14;11.90;99.90
7738;DHT22;29398;45.328;5.558;2023-03-14T04:22:22;11.90;99.90
7738;DHT22;29398;45.328;5.558;2023-03-14T04:23:26;11.90;99.90
7738;DHT22;29398;45.328;5.558;2023-03-14T04:24:27;11.90;99.90
7738;DHT22;29398;45.328;5.558;2023-03-14T04:25:31;11.90;99.90
7738;DHT22;29398;45.328;5.558;2023-03-14T04:26:35;11.90;99.90
7738;DHT22;29398;45.328;5.558;2023-03-14T04:27:37;11.90;99.90
7738;DHT22;29398;45.328;5.558;2023-03-14T04:28:42;12.30;99.90
7738;DHT22;29398;45.328;5.558;2023-03-14T04:29:45;11.70;99.90
7738;DHT22;29398;45.328;5.558;2023-03-14T04:30:49;11.60;99.90
7738;DHT22;29398;45.328;5.558;2023-03-14T04:31:57;11.60;99.90
7738;DHT22;29398;45.328;5.558;2023-03-14T04:32:58;11.60;99.90
7738;DHT22;29398;45.328;5.558;2023-03-14T04:34:02;11.70;99.90
7738;DHT22;29398;45.328;5.558;2023-03-14T04:35:09;11.70;99.90
7738;DHT22;29398;45.328;5.558;2023-03-14T04:36:12;11.70;99.90
7738;DHT22;29398;45.328;5.558;2023-03-14T04:37:13;11.70;99.90
7738;DHT22;29398;45.328;5.558;2023-03-14T04:38:18;11.70;99.90
7738;DHT22;29398;45.328;5.558;2023-03-14T04:39:21;11.70;99.90
7738;DHT22;29398;45.328;5.558;2023-03-14T04:40:29;11.70;99.90
7738;DHT22;29398;45.328;5.558;2023-03-14T04:41:35;11.70;99.90
7738;DHT22;29398;45.328;5.558;2023-03-14T04:42:37;11.80;99.90
7738;DHT22;29398;45.328;5.558;2023-03-14T04:43:40;11.80;99.90
7738;DHT22;29398;45.328;5.558;2023-03-14T04:44:43;11.80;99.90
7738;DHT22;29398;45.328;5.558;2023-03-14T04:45:45;11.80;99.90
7738;DHT22;29398;45.328;5.558;2023-03-14T04:46:47;11.80;99.90
7738;DHT22;29398;45.328;5.558;2023-03-14T04:47:50;11.80;99.90
7738;DHT22;29398;45.328;5.558;2023-03-14T04:48:53;11.80;99.90
7738;DHT22;29398;45.328;5.558;2023-03-14T04:49:58;11.80;99.90
7738;DHT22;29398;45.328;5.558;2023-03-14T04:51:00;11.80;99.90
7738;DHT22;29398;45.328;5.558;2023-03-14T04:52:06;11.80;99.90
7738;DHT22;29398;45.328;5.558;2023-03-14T04:53:09;11.70;99.90
7738;DHT22;29398;45.328;5.558;2023-03-14T04:54:13;11.80;99.90
7738;DHT22;29398;45.328;5.558;2023-03-14T04:55:14;11.80;99.90
7738;DHT22;29398;45.328;5.558;2023-03-14T04:56:16;11.80;99.90
7738;DHT22;29398;45.328;5.558;2023-03-14T04:57:18;11.80;99.90
7738;DHT22;29398;45.328;5.558;2023-03-14T04:58:22;11.80;99.90
7738;DHT22;29398;45.328;5.558;2023-03-14T04:59:25;11.80;99.90
7738;DHT22;29398;45.328;5.558;2023-03-14T05:00:31;11.90;99.90
7738;DHT22;29398;45.328;5.558;2023-03-14T05:01:48;11.90;99.90
7738;DHT22;29398;45.328;5.558;2023-03-14T05:03:11;11.90;99.90
7738;DHT22;29398;45.328;5.558;2023-03-14T05:04:32;11.80;99.90
7738;DHT22;29398;45.328;5.558;2023-03-14T05:05:55;11.90;99.90
7738;DHT22;29398;45.328;5.558;2023-03-14T05:07:16;11.90;99.90
7738;DHT22;29398;45.328;5.558;2023-03-14T05:08:29;11.80;99.90
7738;DHT22;29398;45.328;5.558;2023-03-14T05:09:47;11.80;99.90
7738;DHT22;29398;45.328;5.558;2023-03-14T05:11:12;11.80;99.90
7738;DHT22;29398;45.328;5.558;2023-03-14T05:12:29;11.70;99.90
7738;DHT22;29398;45.328;5.558;2023-03-14T05:14:00;11.70;99.90
7738;DHT22;29398;45.328;5.558;2023-03-14T05:15:09;11.70;99.90
7738;DHT22;29398;45.328;5.558;2023-03-14T05:16:18;11.70;99.90
7738;DHT22;29398;45.328;5.558;2023-03-14T05:17:26;11.70;99.90
7738;DHT22;29398;45.328;5.558;2023-03-14T05:18:51;11.70;99.90
7738;DHT22;29398;45.328;5.558;2023-03-14T05:20:19;11.70;99.90
7738;DHT22;29398;45.328;5.558;2023-03-14T05:21:44;11.70;99.90
7738;DHT22;29398;45.328;5.558;2023-03-14T05:22:45;11.80;99.90
7738;DHT22;29398;45.328;5.558;2023-03-14T05:24:10;11.80;99.90
7738;DHT22;29398;45.328;5.558;2023-03-14T05:25:39;11.80;99.90
7738;DHT22;29398;45.328;5.558;2023-03-14T05:26:49;11.80;99.90
7738;DHT22;29398;45.328;5.558;2023-03-14T05:30:44;12.00;99.90
7738;DHT22;29398;45.328;5.558;2023-03-14T05:32:09;11.90;99.90
7738;DHT22;29398;45.328;5.558;2023-03-14T05:39:24;11.80;99.90
7738;DHT22;29398;45.328;5.558;2023-03-14T05:40:37;11.70;99.90
7738;DHT22;29398;45.328;5.558;2023-03-14T05:41:44;11.80;99.90
7738;DHT22;29398;45.328;5.558;2023-03-14T05:42:56;11.80;99.90
7738;DHT22;29398;45.328;5.558;2023-03-14T05:44:23;11.70;99.90
7738;DHT22;29398;45.328;5.558;2023-03-14T05:45:54;11.80;99.90
7738;DHT22;29398;45.328;5.558;2023-03-14T05:47:25;11.70;99.90
7738;DHT22;29398;45.328;5.558;2023-03-14T05:48:40;11.70;99.90
7738;DHT22;29398;45.328;5.558;2023-03-14T05:50:10;11.60;99.90
7738;DHT22;29398;45.328;5.558;2023-03-14T05:51:34;11.60;99.90
7738;DHT22;29398;45.328;5.558;2023-03-14T05:52:53;11.70;99.90
7738;DHT22;29398;45.328;5.558;2023-03-14T05:54:24;11.70;99.90
7738;DHT22;29398;45.328;5.558;2023-03-14T05:55:44;11.70;99.90
7738;DHT22;29398;45.328;5.558;2023-03-14T05:57:09;11.60;99.90
7738;DHT22;29398;45.328;5.558;2023-03-14T05:58:21;11.50;99.90
7738;DHT22;29398;45.328;5.558;2023-03-14T05:59:43;11.40;99.90
7738;DHT22;29398;45.328;5.558;2023-03-14T06:01:08;11.30;99.90
7738;DHT22;29398;45.328;5.558;2023-03-14T06:02:29;11.10;99.90
7738;DHT22;29398;45.328;5.558;2023-03-14T06:03:39;11.00;99.90
7738;DHT22;29398;45.328;5.558;2023-03-14T06:04:41;11.00;99.90
7738;DHT22;29398;45.328;5.558;2023-03-14T06:05:43;11.00;99.90
7738;DHT22;29398;45.328;5.558;2023-03-14T06:06:46;11.00;99.90
7738;DHT22;29398;45.328;5.558;2023-03-14T06:07:47;11.00;99.90
7738;DHT22;29398;45.328;5.558;2023-03-14T06:08:50;11.00;99.90
7738;DHT22;29398;45.328;5.558;2023-03-14T06:09:52;11.00;99.90
7738;DHT22;29398;45.328;5.558;2023-03-14T06:10:56;11.00;99.90
7738;DHT22;29398;45.328;5.558;2023-03-14T06:12:03;11.00;99.90
7738;DHT22;29398;45.328;5.558;2023-03-14T06:13:12;11.00;99.90
7738;DHT22;29398;45.328;5.558;2023-03-14T06:14:13;11.00;99.90
7738;DHT22;29398;45.328;5.558;2023-03-14T06:15:19;11.00;99.90
7738;DHT22;29398;45.328;5.558;2023-03-14T06:16:23;11.10;99.90
7738;DHT22;29398;45.328;5.558;2023-03-14T06:17:28;11.10;99.90
7738;DHT22;29398;45.328;5.558;2023-03-14T06:18:36;11.10;99.90
7738;DHT22;29398;45.328;5.558;2023-03-14T06:19:41;11.10;99.90
7738;DHT22;29398;45.328;5.558;2023-03-14T06:20:44;11.10;99.90
7738;DHT22;29398;45.328;5.558;2023-03-14T06:21:54;11.10;99.90
7738;DHT22;29398;45.328;5.558;2023-03-14T06:22:59;11.10;99.90
7738;DHT22;29398;45.328;5.558;2023-03-14T06:24:00;11.00;99.90
7738;DHT22;29398;45.328;5.558;2023-03-14T06:25:07;11.00;99.90
7738;DHT22;29398;45.328;5.558;2023-03-14T06:26:08;11.10;99.90
7738;DHT22;29398;45.328;5.558;2023-03-14T06:27:12;11.10;99.90
7738;DHT22;29398;45.328;5.558;2023-03-14T06:28:14;11.10;99.90
7738;DHT22;29398;45.328;5.558;2023-03-14T06:29:16;11.00;99.90
7738;DHT22;29398;45.328;5.558;2023-03-14T06:30:17;11.00;99.90
7738;DHT22;29398;45.328;5.558;2023-03-14T06:31:21;11.10;99.90
7738;DHT22;29398;45.328;5.558;2023-03-14T06:32:33;11.00;99.90
7738;DHT22;29398;45.328;5.558;2023-03-14T06:33:40;10.80;99.90
7738;DHT22;29398;45.328;5.558;2023-03-14T06:34:42;10.80;99.90
7738;DHT22;29398;45.328;5.558;2023-03-14T06:35:44;10.60;99.90
7738;DHT22;29398;45.328;5.558;2023-03-14T06:36:45;10.60;99.90
7738;DHT22;29398;45.328;5.558;2023-03-14T06:37:47;10.60;99.90
7738;DHT22;29398;45.328;5.558;2023-03-14T06:38:49;10.50;99.90
7738;DHT22;29398;45.328;5.558;2023-03-14T06:39:51;10.50;99.90
7738;DHT22;29398;45.328;5.558;2023-03-14T06:41:07;10.40;99.90
7738;DHT22;29398;45.328;5.558;2023-03-14T06:42:14;10.50;99.90
7738;DHT22;29398;45.328;5.558;2023-03-14T06:43:17;10.50;99.90
7738;DHT22;29398;45.328;5.558;2023-03-14T06:44:20;10.40;99.90
7738;DHT22;29398;45.328;5.558;2023-03-14T06:45:22;10.40;99.90
7738;DHT22;29398;45.328;5.558;2023-03-14T06:46:24;10.40;99.90
7738;DHT22;29398;45.328;5.558;2023-03-14T06:47:27;10.50;99.90
7738;DHT22;29398;45.328;5.558;2023-03-14T06:48:29;10.50;99.90
7738;DHT22;29398;45.328;5.558;2023-03-14T06:49:31;10.40;99.90
7738;DHT22;29398;45.328;5.558;2023-03-14T06:50:35;10.50;99.90
7738;DHT22;29398;45.328;5.558;2023-03-14T06:51:38;10.40;99.90
7738;DHT22;29398;45.328;5.558;2023-03-14T06:52:41;10.50;99.90
7738;DHT22;29398;45.328;5.558;2023-03-14T06:53:50;10.50;99.90
7738;DHT22;29398;45.328;5.558;2023-03-14T06:54:55;10.60;99.90
7738;DHT22;29398;45.328;5.558;2023-03-14T06:55:57;10.70;99.90
7738;DHT22;29398;45.328;5.558;2023-03-14T06:57:03;10.70;99.90
7738;DHT22;29398;45.328;5.558;2023-03-14T06:58:06;10.70;99.90
7738;DHT22;29398;45.328;5.558;2023-03-14T06:59:13;10.80;99.90
7738;DHT22;29398;45.328;5.558;2023-03-14T07:00:16;10.80;99.90
7738;DHT22;29398;45.328;5.558;2023-03-14T07:01:22;10.80;99.90
7738;DHT22;29398;45.328;5.558;2023-03-14T07:02:25;10.80;99.90
7738;DHT22;29398;45.328;5.558;2023-03-14T07:03:27;10.80;99.90
7738;DHT22;29398;45.328;5.558;2023-03-14T07:04:30;10.80;99.90
7738;DHT22;29398;45.328;5.558;2023-03-14T07:05:32;10.90;99.90
7738;DHT22;29398;45.328;5.558;2023-03-14T07:06:33;10.80;99.90
7738;DHT22;29398;45.328;5.558;2023-03-14T07:07:35;10.80;99.90
7738;DHT22;29398;45.328;5.558;2023-03-14T07:08:37;10.80;99.90
7738;DHT22;29398;45.328;5.558;2023-03-14T07:09:40;10.80;99.90
7738;DHT22;29398;45.328;5.558;2023-03-14T07:10:41;10.80;99.90